Time;durP1;ratioP1;P1;durP2;ratioP2;P2;SDS_P1;SDS_P2;PMS_P1;PMS_P2;Temp;Humidity;BMP_temperature;BMP_pressure;BME280_temperature;BME280_humidity;BME280_pressure;Samples;Min_cycle;Max_cycle;Signal;HPM_P1;HPM_P2
2022/11/07 00:02:41;;;;;;;51.07;29.63;;;-0.10;99.90;;;;;;8394959;28;20191;-68
2022/11/07 00:06:41;;;;;;;51.40;28.60;;;-0.10;99.90;;;;;;8415616;28;20184;-68
2022/11/07 00:10:42;;;;;;;47.23;25.30;;;-0.10;99.90;;;;;;8395718;28;20184;-68
2022/11/07 00:14:43;;;;;;;46.00;26.20;;;-0.10;99.90;;;;;;8413791;28;20268;-68
2022/11/07 00:18:44;;;;;;;44.07;24.27;;;0.00;99.90;;;;;;8413386;28;20228;-68
2022/11/07 00:22:45;;;;;;;41.37;23.43;;;0.00;99.90;;;;;;8396856;28;20182;-68
2022/11/07 00:26:46;;;;;;;48.13;25.00;;;0.10;99.90;;;;;;8414420;28;20180;-68
2022/11/07 00:30:47;;;;;;;44.83;26.43;;;0.10;99.90;;;;;;8409370;28;20176;-68
2022/11/07 00:34:48;;;;;;;48.00;26.30;;;0.20;99.90;;;;;;8413806;28;20180;-70
2022/11/07 00:38:49;;;;;;;37.87;21.37;;;0.20;99.90;;;;;;8393028;28;20250;-68
2022/11/07 00:42:50;;;;;;;31.83;18.67;;;0.30;99.90;;;;;;8414265;28;20181;-68
2022/11/07 00:46:50;;;;;;;28.63;16.83;;;0.30;99.90;;;;;;8389781;28;20284;-67
2022/11/07 00:50:51;;;;;;;37.33;21.03;;;0.30;99.90;;;;;;8413791;28;20177;-68
2022/11/07 00:54:52;;;;;;;59.07;27.03;;;0.40;99.90;;;;;;8397323;28;20180;-68
2022/11/07 00:58:57;;;;;;;56.90;31.03;;;0.40;99.90;;;;;;8412927;28;20216;-68
2022/11/07 01:07:17;;;;;;;50.00;27.97;;;0.30;99.90;;;;;;8414826;28;20195;-67
2022/11/07 01:11:18;;;;;;;46.83;25.17;;;0.30;99.90;;;;;;8394426;28;20180;-68
2022/11/07 01:15:19;;;;;;;45.73;25.53;;;0.30;99.90;;;;;;8414874;28;20250;-68
2022/11/07 01:19:21;;;;;;;51.00;27.23;;;0.20;99.90;;;;;;8395324;28;20219;-68
2022/11/07 01:23:21;;;;;;;47.70;27.03;;;0.20;99.90;;;;;;8394092;28;20207;-68
2022/11/07 01:27:22;;;;;;;47.00;25.87;;;0.20;99.90;;;;;;8393082;28;20192;-68
2022/11/07 01:31:23;;;;;;;43.67;23.03;;;0.20;99.90;;;;;;8396078;28;20180;-68
2022/11/07 01:35:24;;;;;;;33.13;19.27;;;0.20;99.90;;;;;;8394555;28;20692;-68
2022/11/07 01:39:24;;;;;;;30.70;19.07;;;0.20;99.90;;;;;;8411448;28;20201;-67
2022/11/07 01:43:45;;;;;;;32.60;17.93;;;0.30;99.90;;;;;;8415169;28;20613;-68
2022/11/07 01:47:47;;;;;;;36.33;17.93;;;0.40;99.90;;;;;;8393038;28;20241;-68
2022/11/07 01:52:10;;;;;;;23.70;14.57;;;0.50;99.90;;;;;;8390626;28;20296;-68
2022/11/07 01:56:16;;;;;;;17.20;11.47;;;0.70;99.90;;;;;;8413603;28;20249;-68
2022/11/07 02:00:20;;;;;;;18.93;12.43;;;0.80;99.90;;;;;;8390278;28;20295;-68
2022/11/07 02:04:24;;;;;;;20.77;12.77;;;0.80;99.90;;;;;;8417827;28;20205;-69
2022/11/07 02:08:28;;;;;;;25.13;14.10;;;0.90;99.90;;;;;;8397961;28;20191;-69
2022/11/07 02:12:29;;;;;;;24.40;16.47;;;0.90;99.90;;;;;;8415713;28;20203;-69
2022/11/07 02:16:31;;;;;;;25.43;15.77;;;0.90;99.90;;;;;;8416027;28;20215;-68
2022/11/07 02:20:32;;;;;;;20.87;13.60;;;0.90;99.90;;;;;;8399701;28;20212;-68
2022/11/07 02:24:34;;;;;;;25.40;14.40;;;0.90;99.90;;;;;;8416718;28;20184;-69
2022/11/07 02:28:36;;;;;;;44.10;21.10;;;0.90;99.90;;;;;;8413559;28;20211;-68
2022/11/07 02:32:37;;;;;;;46.93;23.43;;;1.00;99.90;;;;;;8398743;28;20188;-68
2022/11/07 02:36:38;;;;;;;29.80;16.83;;;1.00;99.90;;;;;;8417739;28;20256;-69
2022/11/07 02:40:42;;;;;;;24.83;15.30;;;1.00;99.90;;;;;;8400042;28;20235;-68
2022/11/07 02:44:43;;;;;;;24.27;15.43;;;1.00;99.90;;;;;;8392567;28;20188;-68
2022/11/07 02:48:47;;;;;;;18.60;11.10;;;1.00;99.90;;;;;;8415363;28;20185;-68
2022/11/07 02:52:47;;;;;;;18.27;11.70;;;0.90;99.90;;;;;;8418414;28;20184;-68
2022/11/07 02:56:48;;;;;;;20.20;11.87;;;0.80;99.90;;;;;;8416881;28;20200;-69
2022/11/07 03:00:49;;;;;;;19.80;12.60;;;0.70;99.90;;;;;;8416475;28;20192;-68
2022/11/07 03:04:49;;;;;;;20.20;11.57;;;0.70;99.90;;;;;;8397220;28;20195;-69
2022/11/07 03:08:51;;;;;;;22.80;12.23;;;0.70;99.90;;;;;;8394732;28;20184;-68
2022/11/07 03:12:52;;;;;;;18.00;11.93;;;0.80;99.90;;;;;;8398819;28;20279;-68
2022/11/07 03:16:52;;;;;;;18.87;11.90;;;0.80;99.90;;;;;;8399992;28;20212;-68
2022/11/07 03:20:53;;;;;;;18.47;11.90;;;0.80;99.90;;;;;;8397938;28;20529;-68
2022/11/07 03:24:54;;;;;;;18.30;11.77;;;0.90;99.90;;;;;;8398832;28;20187;-67
2022/11/07 03:28:55;;;;;;;21.20;11.13;;;0.90;99.90;;;;;;8415568;28;20188;-68
2022/11/07 03:32:56;;;;;;;18.23;11.07;;;0.90;99.90;;;;;;8396305;28;20211;-68
2022/11/07 03:36:57;;;;;;;17.27;10.90;;;0.90;99.90;;;;;;8415606;28;20204;-68
2022/11/07 03:40:58;;;;;;;19.27;11.40;;;0.90;99.90;;;;;;8396591;28;20219;-69
2022/11/07 03:44:58;;;;;;;21.43;10.93;;;0.80;99.90;;;;;;8415429;28;20185;-69
2022/11/07 03:48:59;;;;;;;18.80;11.73;;;0.80;99.90;;;;;;8412636;28;20264;-70
2022/11/07 03:53:00;;;;;;;19.33;11.40;;;0.90;99.90;;;;;;8416241;28;20176;-69
2022/11/07 03:57:01;;;;;;;14.57;10.43;;;1.00;99.90;;;;;;8396308;28;20363;-69
2022/11/07 04:01:02;;;;;;;33.80;17.20;;;1.20;99.90;;;;;;8395252;28;20211;-68
2022/11/07 04:05:04;;;;;;;55.73;27.43;;;1.30;99.90;;;;;;8396986;28;20192;-69
2022/11/07 04:09:05;;;;;;;54.97;28.47;;;1.40;99.90;;;;;;8399839;28;20188;-70
2022/11/07 04:17:29;;;;;;;80.63;41.63;;;1.60;99.90;;;;;;8413207;28;20208;-69
2022/11/07 04:21:30;;;;;;;68.93;37.13;;;1.70;99.90;;;;;;8415082;28;20284;-70
2022/11/07 04:29:50;;;;;;;54.47;34.47;;;1.80;99.90;;;;;;8415322;28;20214;-69
2022/11/07 04:33:51;;;;;;;57.47;33.80;;;1.90;99.90;;;;;;8398272;28;20184;-70
2022/11/07 04:37:52;;;;;;;51.43;31.63;;;1.90;99.90;;;;;;8415636;28;20198;-69
2022/11/07 04:41:55;;;;;;;49.83;30.00;;;1.90;99.90;;;;;;8399555;28;20216;-69
2022/11/07 04:45:55;;;;;;;45.40;28.63;;;2.00;99.90;;;;;;8413755;28;20183;-69
2022/11/07 04:49:56;;;;;;;42.77;27.03;;;2.10;99.90;;;;;;8417541;28;20188;-69
2022/11/07 04:53:57;;;;;;;46.43;29.20;;;2.20;99.90;;;;;;8398700;28;20186;-69
2022/11/07 04:57:58;;;;;;;45.63;28.97;;;2.20;99.90;;;;;;8413792;28;20208;-69
2022/11/07 05:02:00;;;;;;;38.10;23.17;;;2.20;99.90;;;;;;8417777;28;20771;-69
2022/11/07 05:06:03;;;;;;;35.03;21.00;;;2.30;99.90;;;;;;8398401;28;20188;-69
2022/11/07 05:10:05;;;;;;;48.67;28.53;;;2.30;99.90;;;;;;8398143;28;20266;-70
2022/11/07 05:14:07;;;;;;;37.20;22.33;;;2.30;99.90;;;;;;8397689;28;20301;-70
2022/11/07 05:18:09;;;;;;;36.17;21.97;;;2.40;99.90;;;;;;8394374;28;20191;-70
2022/11/07 05:26:30;;;;;;;47.00;29.03;;;2.70;99.90;;;;;;8416788;28;20235;-69
2022/11/07 05:30:31;;;;;;;38.33;25.43;;;2.70;99.90;;;;;;8416061;28;20206;-71
2022/11/07 05:34:31;;;;;;;32.23;19.83;;;2.60;99.90;;;;;;8419668;28;20239;-70
2022/11/07 05:38:32;;;;;;;34.17;18.93;;;2.50;99.90;;;;;;8423366;28;20236;-72
2022/11/07 05:42:33;;;;;;;27.10;15.77;;;2.50;99.90;;;;;;8402697;28;20227;-70
2022/11/07 05:46:34;;;;;;;17.40;10.13;;;2.60;99.90;;;;;;8403253;28;20225;-70
2022/11/07 05:50:35;;;;;;;12.40;8.73;;;2.70;99.90;;;;;;8419788;28;20173;-70
2022/11/07 05:54:36;;;;;;;11.33;7.17;;;2.90;99.90;;;;;;8419038;28;20192;-70
2022/11/07 05:58:36;;;;;;;11.33;6.87;;;3.20;99.90;;;;;;8402426;28;20213;-70
2022/11/07 06:02:37;;;;;;;9.77;6.43;;;3.50;99.90;;;;;;8421599;28;20211;-70
2022/11/07 06:06:38;;;;;;;9.67;7.20;;;3.60;99.90;;;;;;8405669;28;20229;-71
2022/11/07 06:10:41;;;;;;;10.93;7.13;;;3.90;99.90;;;;;;8404055;28;20242;-71
2022/11/07 06:14:41;;;;;;;12.53;6.97;;;4.00;99.90;;;;;;8402316;28;20202;-70
2022/11/07 06:18:42;;;;;;;12.50;7.60;;;4.30;99.90;;;;;;8403311;28;20218;-70
2022/11/07 06:22:43;;;;;;;10.20;6.97;;;4.50;99.90;;;;;;8402302;28;20180;-73
2022/11/07 06:26:44;;;;;;;9.83;6.90;;;4.70;99.90;;;;;;8403275;28;20214;-71
2022/11/07 06:30:45;;;;;;;11.73;7.37;;;5.00;99.90;;;;;;8406170;28;20203;-71
2022/11/07 06:34:46;;;;;;;12.07;7.10;;;5.30;99.90;;;;;;8404526;28;20211;-70
2022/11/07 06:38:52;;;;;;;12.30;7.93;;;5.50;99.90;;;;;;8404131;28;20245;-71
2022/11/07 06:42:53;;;;;;;11.27;7.37;;;5.70;99.90;;;;;;8423588;28;20255;-72
2022/11/07 06:46:53;;;;;;;11.23;6.57;;;5.90;99.90;;;;;;8403780;28;20513;-71
2022/11/07 06:51:02;;;;;;;10.53;7.30;;;6.10;99.90;;;;;;8404123;28;20202;-70
2022/11/07 06:55:03;;;;;;;12.20;7.40;;;6.30;99.90;;;;;;8398989;28;20272;-71
2022/11/07 06:59:04;;;;;;;11.93;7.93;;;6.50;99.90;;;;;;8418891;28;20223;-70
2022/11/07 07:03:05;;;;;;;9.90;7.13;;;6.70;99.90;;;;;;8405040;28;20237;-69
2022/11/07 07:07:06;;;;;;;9.43;6.90;;;6.90;99.90;;;;;;8419326;28;20176;-69
2022/11/07 07:11:09;;;;;;;11.30;7.73;;;7.00;99.90;;;;;;8421638;28;20251;-70
2022/11/07 07:15:10;;;;;;;9.13;6.83;;;7.20;99.90;;;;;;8418276;28;20203;-70
2022/11/07 07:19:12;;;;;;;12.07;7.10;;;7.40;99.90;;;;;;8399725;28;20208;-70
2022/11/07 07:23:13;;;;;;;9.40;6.77;;;7.60;99.90;;;;;;8402782;28;20181;-70
2022/11/07 07:27:13;;;;;;;9.07;6.30;;;7.70;99.90;;;;;;8415953;28;20191;-71
2022/11/07 07:31:14;;;;;;;11.40;6.53;;;7.90;99.90;;;;;;8419979;28;20177;-71
2022/11/07 07:35:15;;;;;;;9.73;5.90;;;8.10;99.90;;;;;;8398261;28;20261;-71
2022/11/07 07:39:16;;;;;;;8.53;6.00;;;8.20;99.90;;;;;;8400262;28;20303;-69
2022/11/07 07:43:16;;;;;;;8.27;5.87;;;8.30;99.90;;;;;;8420173;28;20271;-70
2022/11/07 07:47:17;;;;;;;8.60;5.60;;;8.40;99.90;;;;;;8400901;28;20173;-70
2022/11/07 07:51:18;;;;;;;9.80;6.57;;;8.50;99.90;;;;;;8402319;28;20180;-70
2022/11/07 07:55:19;;;;;;;7.97;6.20;;;8.60;99.90;;;;;;8401459;28;20184;-70
2022/11/07 07:59:20;;;;;;;9.33;5.30;;;8.70;99.90;;;;;;8403499;28;20218;-71
2022/11/07 08:03:20;;;;;;;7.17;5.13;;;8.80;99.90;;;;;;8418423;28;20204;-71
2022/11/07 08:07:21;;;;;;;7.97;5.87;;;8.70;99.90;;;;;;8399631;28;20183;-71
2022/11/07 08:11:22;;;;;;;10.20;6.07;;;8.70;99.90;;;;;;8418743;28;20401;-70
2022/11/07 08:15:23;;;;;;;8.50;5.37;;;8.70;99.90;;;;;;8421033;28;20176;-71
2022/11/07 08:19:25;;;;;;;9.13;6.53;;;8.80;99.90;;;;;;8420155;28;20208;-70
2022/11/07 08:23:25;;;;;;;9.33;6.40;;;9.00;99.90;;;;;;8419756;28;20268;-71
2022/11/07 08:27:26;;;;;;;7.63;5.20;;;9.10;99.90;;;;;;8419529;28;20209;-71
2022/11/07 08:31:27;;;;;;;8.97;5.50;;;9.20;99.90;;;;;;8398949;28;20263;-70
2022/11/07 08:35:29;;;;;;;7.63;4.70;;;9.40;99.90;;;;;;8416367;28;20177;-71
2022/11/07 08:39:30;;;;;;;7.73;5.13;;;9.50;99.90;;;;;;8415902;28;20225;-71
2022/11/07 08:43:31;;;;;;;9.07;5.33;;;9.60;99.90;;;;;;8417566;28;20241;-70
2022/11/07 08:47:31;;;;;;;7.37;5.10;;;9.80;99.90;;;;;;8416904;28;20190;-71
2022/11/07 08:51:32;;;;;;;6.90;5.03;;;10.00;99.90;;;;;;8403030;28;20408;-72
2022/11/07 08:55:33;;;;;;;6.43;4.70;;;10.30;99.90;;;;;;8402346;28;20190;-71
2022/11/07 08:59:34;;;;;;;7.00;4.90;;;10.60;99.90;;;;;;8414626;28;20288;-71
2022/11/07 09:03:36;;;;;;;6.37;4.90;;;10.80;99.90;;;;;;8397927;28;20203;-71
2022/11/07 09:07:38;;;;;;;7.40;4.67;;;11.10;99.90;;;;;;8413576;28;20184;-71
2022/11/07 09:11:39;;;;;;;5.07;4.17;;;11.10;99.90;;;;;;8404696;28;20188;-71
2022/11/07 09:15:39;;;;;;;7.13;4.37;;;11.30;99.90;;;;;;8420459;28;20295;-71
2022/11/07 09:19:40;;;;;;;5.90;4.43;;;11.50;99.90;;;;;;8404760;28;20298;-70
2022/11/07 09:23:41;;;;;;;6.93;4.60;;;11.40;99.90;;;;;;8408047;28;20185;-71
2022/11/07 09:27:42;;;;;;;5.93;4.53;;;11.60;99.90;;;;;;8425258;28;20181;-71
2022/11/07 09:31:43;;;;;;;6.10;4.53;;;11.70;99.90;;;;;;8410135;28;20211;-70
2022/11/07 09:35:44;;;;;;;8.40;4.73;;;11.80;99.90;;;;;;8397612;28;20199;-71
2022/11/07 09:39:45;;;;;;;5.40;4.37;;;11.90;99.90;;;;;;8423152;28;20208;-72
2022/11/07 09:43:52;;;;;;;5.87;4.23;;;12.00;97.90;;;;;;8421336;28;20219;-71
2022/11/07 09:48:01;;;;;;;6.13;4.00;;;12.10;55.50;;;;;;8405468;28;20172;-71
2022/11/07 09:52:18;;;;;;;5.20;3.50;;;12.10;75.40;;;;;;8421024;28;21129;-71
2022/11/07 09:56:19;;;;;;;4.90;3.50;;;12.10;99.90;;;;;;8401216;28;20188;-71
2022/11/07 10:00:21;;;;;;;5.47;3.40;;;12.20;95.70;;;;;;8400905;28;20231;-72
2022/11/07 10:04:22;;;;;;;4.47;3.00;;;12.30;18.00;;;;;;8401505;28;20215;-71
2022/11/07 10:08:27;;;;;;;3.77;3.23;;;12.40;2.10;;;;;;8392879;28;20189;-70
2022/11/07 10:12:36;;;;;;;7.47;4.53;;;12.60;3.50;;;;;;8419377;28;20192;-72
2022/11/07 10:16:52;;;;;;;5.10;3.07;;;12.70;8.90;;;;;;8403722;28;20251;-72
2022/11/07 10:21:05;;;;;;;4.93;2.97;;;12.70;1.00;;;;;;8417617;28;20235;-71
2022/11/07 10:25:20;;;;;;;4.30;2.60;;;12.70;1.00;;;;;;8417871;28;20286;-71
2022/11/07 10:29:26;;;;;;;6.30;2.47;;;12.80;1.00;;;;;;8419038;28;20180;-71
2022/11/07 10:33:38;;;;;;;4.07;2.83;;;12.70;1.00;;;;;;8417007;28;20223;-70
2022/11/07 10:37:38;;;;;;;2.73;2.47;;;12.80;1.00;;;;;;8417612;28;20186;-71
2022/11/07 10:41:42;;;;;;;5.43;3.00;;;12.90;1.00;;;;;;8418856;28;20215;-71
2022/11/07 10:45:43;;;;;;;4.53;2.50;;;13.00;1.00;;;;;;8417532;28;20981;-72
2022/11/07 10:50:01;;;;;;;5.87;2.60;;;13.00;1.00;;;;;;8418741;28;20311;-72
2022/11/07 10:54:02;;;;;;;3.67;3.10;;;13.00;1.00;;;;;;8402424;28;20192;-71
2022/11/07 10:58:06;;;;;;;4.07;2.77;;;13.10;1.00;;;;;;8417426;28;20232;-71
2022/11/07 11:02:48;;;;;;;4.37;2.47;;;13.20;1.00;;;;;;8396818;28;20215;-72
2022/11/07 11:06:57;;;;;;;3.57;2.63;;;13.40;1.00;;;;;;8398902;28;20192;-71
2022/11/07 11:10:57;;;;;;;3.47;2.63;;;13.30;1.00;;;;;;8417475;28;20184;-71
2022/11/07 11:15:21;;;;;;;5.17;2.63;;;13.20;1.00;;;;;;8416986;28;20180;-71
2022/11/07 11:19:26;;;;;;;4.57;2.50;;;13.30;1.00;;;;;;8417814;28;20262;-71
2022/11/07 11:23:34;;;;;;;4.27;2.47;;;13.30;1.00;;;;;;8414120;28;20180;-72
2022/11/07 11:27:36;;;;;;;3.30;2.40;;;13.30;1.00;;;;;;8416455;28;20180;-72
2022/11/07 11:31:44;;;;;;;4.17;2.30;;;13.30;1.00;;;;;;8398063;28;20212;-71
2022/11/07 11:36:23;;;;;;;3.90;2.50;;;13.40;1.00;;;;;;8398943;28;20219;-71
2022/11/07 11:40:24;;;;;;;3.97;2.23;;;13.40;1.00;;;;;;8344677;28;20216;-70
2022/11/07 11:44:31;;;;;;;4.63;2.70;;;13.40;1.00;;;;;;8396969;28;20184;-71
2022/11/07 11:48:38;;;;;;;3.40;2.50;;;13.40;1.00;;;;;;8414017;28;20185;-72
2022/11/07 11:52:39;;;;;;;3.30;2.33;;;13.40;1.00;;;;;;8396561;28;20188;-72
2022/11/07 11:56:51;;;;;;;3.07;2.43;;;13.40;1.00;;;;;;8398465;28;20184;-71
2022/11/07 12:01:34;;;;;;;3.30;2.30;;;13.50;1.00;;;;;;8396768;28;20314;-70
2022/11/07 12:05:53;;;;;;;3.53;2.13;;;13.50;1.00;;;;;;8397148;28;20228;-70
2022/11/07 12:09:54;;;;;;;4.23;2.20;;;13.40;1.00;;;;;;8395763;28;20185;-72
2022/11/07 12:14:07;;;;;;;4.00;2.60;;;13.50;1.00;;;;;;8413301;28;20233;-71
2022/11/07 12:18:37;;;;;;;4.07;2.43;;;13.60;1.00;;;;;;8408677;28;20263;-72
2022/11/07 12:22:46;;;;;;;3.47;2.80;;;13.80;1.00;;;;;;8379589;28;20234;-72
2022/11/07 12:27:07;;;;;;;3.77;2.30;;;13.80;1.00;;;;;;8399449;28;20176;-71
2022/11/07 12:31:13;;;;;;;3.73;2.43;;;13.90;1.00;;;;;;8412978;28;20173;-72
2022/11/07 12:35:33;;;;;;;2.83;2.17;;;13.70;1.00;;;;;;8395178;28;20358;-70
2022/11/07 12:39:43;;;;;;;2.57;2.20;;;13.70;1.00;;;;;;8415427;28;20208;-71
2022/11/07 12:44:03;;;;;;;2.53;2.03;;;13.80;1.00;;;;;;8416676;28;20180;-72
2022/11/07 12:48:36;;;;;;;3.50;2.27;;;13.70;1.00;;;;;;8396730;28;20269;-72
2022/11/07 12:52:54;;;;;;;3.20;1.93;;;13.70;1.00;;;;;;8394238;28;20181;-71
2022/11/07 12:56:56;;;;;;;3.23;2.30;;;13.60;1.00;;;;;;8414819;28;20205;-72
2022/11/07 13:00:58;;;;;;;3.87;2.20;;;13.60;99.90;;;;;;8413751;28;20219;-71
2022/11/07 13:05:11;;;;;;;2.93;2.20;;;13.50;1.00;;;;;;8415306;28;20250;-71
2022/11/07 13:09:18;;;;;;;2.33;1.80;;;13.50;1.00;;;;;;8411488;28;20180;-71
2022/11/07 13:13:34;;;;;;;2.40;1.77;;;13.50;1.00;;;;;;8418850;28;20215;-71
2022/11/07 13:17:43;;;;;;;2.73;1.50;;;13.50;1.00;;;;;;8396170;28;20275;-70
2022/11/07 13:21:44;;;;;;;2.27;1.77;;;13.50;1.00;;;;;;8417597;28;20285;-71
2022/11/07 13:25:55;;;;;;;3.30;1.53;;;13.40;1.00;;;;;;8414485;28;20176;-70
2022/11/07 13:29:56;;;;;;;4.97;2.30;;;13.30;1.00;;;;;;8416781;28;20177;-72
2022/11/07 13:34:19;;;;;;;7.60;2.07;;;13.10;1.00;;;;;;8404741;28;20181;-70
2022/11/07 13:38:23;;;;;;;6.53;2.47;;;13.00;1.00;;;;;;8399756;28;20191;-71
2022/11/07 13:42:28;;;;;;;3.67;1.80;;;13.00;1.00;;;;;;8419142;28;20184;-70
2022/11/07 13:46:30;;;;;;;3.37;2.20;;;13.00;1.00;;;;;;8399605;28;20304;-71
2022/11/07 13:50:41;;;;;;;4.23;2.27;;;13.00;1.00;;;;;;8398881;28;20195;-71
2022/11/07 13:55:16;;;;;;;3.07;2.03;;;13.00;1.00;;;;;;8423190;28;20180;-72
2022/11/07 13:59:38;;;;;;;3.00;1.97;;;12.90;1.00;;;;;;8425101;28;20351;-72
2022/11/07 14:03:39;;;;;;;4.43;2.07;;;12.80;1.00;;;;;;8423353;28;20231;-71
2022/11/07 14:07:48;;;;;;;2.90;2.43;;;12.70;9.10;;;;;;8405154;28;20188;-72
2022/11/07 14:11:51;;;;;;;5.67;2.50;;;12.60;70.60;;;;;;8423696;28;20313;-72
2022/11/07 14:15:55;;;;;;;3.47;2.17;;;12.50;99.90;;;;;;8420327;28;20208;-72
2022/11/07 14:20:16;;;;;;;3.37;2.63;;;12.40;99.90;;;;;;8424993;28;20209;-71
2022/11/07 14:24:26;;;;;;;4.30;2.87;;;12.30;99.90;;;;;;8405380;28;20195;-72
2022/11/07 14:28:35;;;;;;;3.67;2.13;;;12.20;99.90;;;;;;8418164;28;20202;-71
2022/11/07 14:32:38;;;;;;;4.53;2.87;;;12.00;99.90;;;;;;8402990;28;20192;-72
2022/11/07 14:36:56;;;;;;;4.33;2.67;;;11.80;99.90;;;;;;8402951;28;20264;-71
2022/11/07 14:41:00;;;;;;;3.63;2.30;;;11.60;99.90;;;;;;8404437;28;20204;-71
2022/11/07 14:45:03;;;;;;;3.27;2.37;;;11.40;1.00;;;;;;8423596;28;20335;-72
2022/11/07 14:49:04;;;;;;;5.20;2.77;;;11.20;1.00;;;;;;8402374;28;20248;-71
2022/11/07 14:53:25;;;;;;;4.03;2.60;;;11.00;1.00;;;;;;8421205;28;20215;-74
2022/11/07 14:57:26;;;;;;;3.27;2.47;;;10.80;37.30;;;;;;8424000;28;20238;-71
2022/11/07 15:01:33;;;;;;;3.47;2.20;;;10.60;99.90;;;;;;8404767;28;20214;-71
2022/11/07 15:05:36;;;;;;;2.77;2.43;;;10.40;99.90;;;;;;8421615;28;20223;-72
2022/11/07 15:09:39;;;;;;;3.43;2.30;;;10.30;99.90;;;;;;8398578;28;20210;-70
2022/11/07 15:13:41;;;;;;;3.43;2.20;;;10.10;99.90;;;;;;8421194;28;20256;-72
2022/11/07 15:17:54;;;;;;;3.60;2.67;;;9.80;1.00;;;;;;8418566;28;20185;-70
2022/11/07 15:22:02;;;;;;;4.83;3.30;;;9.60;99.90;;;;;;8400604;28;20202;-70
2022/11/07 15:26:05;;;;;;;5.83;3.67;;;9.40;1.00;;;;;;8416196;28;20260;-70
2022/11/07 15:30:28;;;;;;;8.30;4.00;;;9.30;1.00;;;;;;8399854;28;20185;-70
2022/11/07 15:34:29;;;;;;;5.93;3.50;;;9.30;1.00;;;;;;8396234;28;20177;-70
2022/11/07 15:38:30;;;;;;;5.13;3.50;;;9.30;1.00;;;;;;8399421;28;20184;-70
2022/11/07 15:42:31;;;;;;;4.77;3.00;;;9.30;1.00;;;;;;8417628;28;20172;-70
2022/11/07 15:46:39;;;;;;;4.03;3.03;;;9.40;1.00;;;;;;8392656;28;20181;-70
2022/11/07 15:50:42;;;;;;;5.87;3.20;;;9.30;99.90;;;;;;8396793;28;20173;-71
2022/11/07 15:54:43;;;;;;;3.83;3.10;;;9.30;1.00;;;;;;8415919;28;20244;-70
2022/11/07 15:58:44;;;;;;;5.00;3.80;;;9.20;1.00;;;;;;8396974;28;20212;-70
2022/11/07 16:02:45;;;;;;;8.10;4.00;;;9.20;1.00;;;;;;8396941;28;20275;-72
2022/11/07 16:06:46;;;;;;;5.13;3.50;;;9.10;1.00;;;;;;8398918;28;20214;-70
2022/11/07 16:10:57;;;;;;;7.53;4.33;;;9.20;42.30;;;;;;8416517;28;20271;-73
2022/11/07 16:14:58;;;;;;;8.63;4.30;;;9.20;99.90;;;;;;8415807;28;20185;-71
2022/11/07 16:19:00;;;;;;;6.13;4.20;;;9.20;99.90;;;;;;8399150;28;20238;-71
2022/11/07 16:23:01;;;;;;;6.60;4.07;;;9.10;99.90;;;;;;8402069;28;20181;-71
2022/11/07 16:27:03;;;;;;;6.30;4.23;;;9.10;99.90;;;;;;8398510;28;20196;-70
2022/11/07 16:31:04;;;;;;;6.23;4.10;;;9.10;99.90;;;;;;8416935;28;20181;-70
2022/11/07 16:35:05;;;;;;;6.70;3.97;;;9.00;99.90;;;;;;8415948;28;20299;-70
2022/11/07 16:39:13;;;;;;;5.70;3.80;;;9.00;1.00;;;;;;8395932;28;20224;-70
2022/11/07 16:43:14;;;;;;;6.13;3.37;;;9.00;1.00;;;;;;8396499;28;20195;-70
2022/11/07 16:47:16;;;;;;;4.67;3.67;;;9.00;1.00;;;;;;8414412;28;20180;-70
2022/11/07 16:51:18;;;;;;;6.30;3.60;;;9.00;99.90;;;;;;8412085;28;20192;-70
2022/11/07 16:55:19;;;;;;;4.70;3.43;;;9.00;99.90;;;;;;8389105;28;20192;-70
2022/11/07 16:59:22;;;;;;;6.77;3.53;;;8.90;99.90;;;;;;8389136;28;20315;-71
2022/11/07 17:03:23;;;;;;;5.60;3.90;;;8.80;99.90;;;;;;8395246;28;20200;-70
2022/11/07 17:07:24;;;;;;;5.30;3.97;;;8.70;99.90;;;;;;8398219;28;20465;-71
2022/11/07 17:11:25;;;;;;;8.50;4.13;;;8.60;1.00;;;;;;8396962;28;20192;-71
2022/11/07 17:15:26;;;;;;;7.83;3.97;;;8.60;99.90;;;;;;8415188;28;20193;-71
2022/11/07 17:19:27;;;;;;;5.80;3.80;;;8.50;99.90;;;;;;8394128;28;20303;-70
2022/11/07 17:23:29;;;;;;;5.53;4.37;;;8.50;99.90;;;;;;8413745;28;20195;-71
2022/11/07 17:27:30;;;;;;;8.63;4.90;;;8.40;99.90;;;;;;8395592;28;20326;-71
2022/11/07 17:31:31;;;;;;;7.47;4.27;;;8.40;99.90;;;;;;8418231;28;20294;-70
2022/11/07 17:35:32;;;;;;;6.83;4.30;;;8.40;1.00;;;;;;8403239;28;20180;-70
2022/11/07 17:39:33;;;;;;;6.63;4.17;;;8.50;1.00;;;;;;8419615;28;20212;-70
2022/11/07 17:43:34;;;;;;;5.63;4.10;;;8.50;99.90;;;;;;8417685;28;20204;-70
2022/11/07 17:47:35;;;;;;;7.60;4.13;;;8.50;1.00;;;;;;8416560;28;20180;-71
2022/11/07 17:51:36;;;;;;;8.67;4.73;;;8.50;1.00;;;;;;8417239;28;20192;-72
2022/11/07 17:55:37;;;;;;;5.50;4.10;;;8.50;1.00;;;;;;8395574;28;20587;-71
2022/11/07 17:59:38;;;;;;;8.57;4.90;;;8.50;1.00;;;;;;8413795;28;20209;-71
2022/11/07 18:03:38;;;;;;;7.93;4.37;;;8.50;1.00;;;;;;8415930;28;20188;-70
2022/11/07 18:07:40;;;;;;;7.13;4.17;;;8.60;99.90;;;;;;8416606;28;20181;-71
2022/11/07 18:11:41;;;;;;;8.10;5.00;;;8.70;93.80;;;;;;8416456;28;20187;-70
2022/11/07 18:15:42;;;;;;;8.03;4.90;;;8.80;1.00;;;;;;8416843;28;20243;-71
2022/11/07 18:19:43;;;;;;;9.23;5.03;;;8.90;99.90;;;;;;8399488;28;20643;-71
2022/11/07 18:23:44;;;;;;;8.73;5.00;;;9.00;1.00;;;;;;8418384;28;20176;-70
2022/11/07 18:27:46;;;;;;;7.60;4.57;;;9.00;1.00;;;;;;8399449;28;20219;-70
2022/11/07 18:31:48;;;;;;;9.33;4.53;;;9.10;99.90;;;;;;8404563;28;20298;-70
2022/11/07 18:35:49;;;;;;;7.13;4.40;;;9.20;99.90;;;;;;8398235;28;20192;-70
2022/11/07 18:39:51;;;;;;;8.07;4.60;;;9.40;99.90;;;;;;8398404;28;20209;-70
2022/11/07 18:43:53;;;;;;;7.53;4.20;;;9.50;1.00;;;;;;8415289;28;20179;-69
2022/11/07 18:47:53;;;;;;;8.87;4.73;;;9.60;1.00;;;;;;8400492;28;20323;-70
2022/11/07 18:51:54;;;;;;;7.40;4.00;;;9.70;1.00;;;;;;8398792;28;20185;-70
2022/11/07 18:56:00;;;;;;;6.60;3.93;;;9.80;99.90;;;;;;8398421;28;20246;-70
2022/11/07 19:00:03;;;;;;;6.40;3.80;;;9.80;99.90;;;;;;8418456;28;20216;-69
2022/11/07 19:04:05;;;;;;;7.67;3.70;;;9.90;99.90;;;;;;8423293;28;20525;-70
2022/11/07 19:08:06;;;;;;;6.13;3.60;;;10.00;99.90;;;;;;8421973;28;20184;-70
2022/11/07 19:12:07;;;;;;;6.37;3.57;;;10.10;99.90;;;;;;8419531;28;20190;-71
2022/11/07 19:16:09;;;;;;;6.13;3.00;;;10.20;99.90;;;;;;8421084;28;20191;-69
2022/11/07 19:20:10;;;;;;;4.97;3.00;;;10.20;99.90;;;;;;8418051;28;20211;-70
2022/11/07 19:24:12;;;;;;;7.47;3.17;;;10.20;99.90;;;;;;8402093;28;20191;-70
2022/11/07 19:28:14;;;;;;;5.30;3.30;;;10.20;99.90;;;;;;8402488;28;20215;-70
2022/11/07 19:32:15;;;;;;;5.73;3.43;;;10.20;63.90;;;;;;8404194;28;20327;-70
2022/11/07 19:36:18;;;;;;;6.07;3.00;;;10.30;14.90;;;;;;8402459;28;20200;-69
2022/11/07 19:40:19;;;;;;;7.97;3.13;;;10.30;16.00;;;;;;8420037;28;20220;-69
2022/11/07 19:44:20;;;;;;;4.87;3.13;;;10.30;39.30;;;;;;8421213;28;20196;-70
2022/11/07 19:48:21;;;;;;;5.30;2.50;;;10.30;47.60;;;;;;8414401;28;20194;-72
2022/11/07 19:52:22;;;;;;;5.97;3.20;;;10.20;48.70;;;;;;8399991;28;20195;-71
2022/11/07 19:56:25;;;;;;;5.90;2.80;;;10.10;92.90;;;;;;8401571;28;20303;-70
2022/11/07 20:00:25;;;;;;;4.30;2.80;;;10.00;99.90;;;;;;8418150;28;20591;-69
2022/11/07 20:04:26;;;;;;;6.30;3.37;;;9.90;99.90;;;;;;8417255;28;20457;-70
2022/11/07 20:08:27;;;;;;;5.53;2.77;;;9.90;99.90;;;;;;8396923;28;20496;-70
2022/11/07 20:12:28;;;;;;;4.77;2.57;;;9.80;99.90;;;;;;8412808;28;20193;-70
2022/11/07 20:16:30;;;;;;;8.23;2.60;;;9.80;99.90;;;;;;8414469;28;20178;-69
2022/11/07 20:20:31;;;;;;;4.30;2.83;;;9.80;1.00;;;;;;8395046;28;20210;-70
2022/11/07 20:24:32;;;;;;;2.97;2.37;;;9.90;1.00;;;;;;8410325;28;20219;-70
2022/11/07 20:28:33;;;;;;;4.03;2.50;;;10.10;1.00;;;;;;8412496;28;20253;-70
2022/11/07 20:32:34;;;;;;;6.57;2.73;;;10.20;99.90;;;;;;8413612;28;20223;-72
2022/11/07 20:36:34;;;;;;;5.07;2.53;;;10.30;99.90;;;;;;8393270;28;20187;-70
2022/11/07 20:40:36;;;;;;;7.87;2.80;;;10.40;99.90;;;;;;8412766;28;20211;-70
2022/11/07 20:44:37;;;;;;;3.03;2.13;;;10.40;99.90;;;;;;8416038;28;20174;-71
2022/11/07 20:48:38;;;;;;;5.00;2.40;;;10.40;99.90;;;;;;8411359;28;20298;-70
2022/11/07 20:52:39;;;;;;;4.50;2.47;;;10.50;99.90;;;;;;8393188;28;20216;-70
2022/11/07 20:56:41;;;;;;;3.57;2.50;;;10.40;99.90;;;;;;8394230;28;20187;-71
2022/11/07 21:00:42;;;;;;;4.47;2.80;;;10.40;99.90;;;;;;8392145;28;20218;-71
2022/11/07 21:04:43;;;;;;;4.37;2.37;;;10.30;99.90;;;;;;8397543;28;20196;-70
2022/11/07 21:08:46;;;;;;;6.67;2.73;;;10.20;99.90;;;;;;8401724;28;20212;-69
2022/11/07 21:12:47;;;;;;;5.90;2.67;;;10.00;99.90;;;;;;8405508;28;20203;-69
2022/11/07 21:16:47;;;;;;;4.03;2.67;;;9.90;1.00;;;;;;8417610;28;20178;-71
2022/11/07 21:20:48;;;;;;;4.97;2.33;;;9.80;1.00;;;;;;8398968;28;20209;-70
2022/11/07 21:24:49;;;;;;;4.67;2.87;;;9.80;12.10;;;;;;8418051;28;20196;-70
2022/11/07 21:28:50;;;;;;;5.53;2.77;;;9.70;99.90;;;;;;8398614;28;20189;-70
2022/11/07 21:32:51;;;;;;;3.80;2.70;;;9.60;99.90;;;;;;8400819;28;20358;-70